Terminal Aerodrome Forecast
Issued by NWS

Home | Current Version | Previous Version | Graphics & Text | Print | Product List | Glossary On
Versions: 1 2 3 4 5 6 7 8 9 10 11 12 13 14 15 16 17
000
FTUS43 KMPX 111349 AAA
TAFRNH
TAF AMD
KRNH 111349Z 1114/1212 VRB03KT P6SM VCSH SCT015 OVC035
     FM111430 33010KT 2SM -SHSN OVC015
     FM111600 33013G20KT P6SM OVC012
     FM112000 33018G28KT P6SM BKN025
     FM120100 32015G26KT P6SM FEW030
     FM120600 31009KT P6SM SKC=

USA.gov is the U.S. government's official web portal to all federal, state and local government web resources and services.